createdAt,value
2019-04-11T00:00:03.523Z,99.90
2019-04-11T00:02:34.265Z,99.90
2019-04-11T00:05:04.851Z,99.90
2019-04-11T00:07:36.349Z,99.90
2019-04-11T00:10:08.603Z,99.90
2019-04-11T00:12:39.299Z,99.90
2019-04-11T00:15:10.687Z,99.90
2019-04-11T00:17:41.828Z,99.90
2019-04-11T00:20:12.446Z,99.90
2019-04-11T00:22:43.716Z,99.90
2019-04-11T00:25:15.601Z,99.90
2019-04-11T00:27:46.339Z,99.90
2019-04-11T00:30:17.836Z,99.90
2019-04-11T00:32:49.842Z,99.90
2019-04-11T00:35:21.631Z,99.90
2019-04-11T00:37:53.663Z,99.90
2019-04-11T00:40:24.865Z,99.90
2019-04-11T00:42:55.828Z,99.90
2019-04-11T00:45:27.481Z,99.90
2019-04-11T00:47:59.529Z,99.90
2019-04-11T00:50:31.531Z,99.90
2019-04-11T00:53:03.577Z,99.90
2019-04-11T00:55:35.526Z,99.90
2019-04-11T00:58:07.471Z,99.90
2019-04-11T01:00:39.671Z,99.90
2019-04-11T01:03:10.364Z,99.90
2019-04-11T01:05:41.534Z,99.90
2019-04-11T01:08:13.572Z,99.90
2019-04-11T01:10:45.553Z,99.90
2019-04-11T01:13:17.571Z,99.90
2019-04-11T01:15:57.172Z,99.90
2019-04-11T01:18:27.810Z,99.90
2019-04-11T01:20:59.797Z,99.90
2019-04-11T01:23:31.118Z,99.90
2019-04-11T01:26:03.191Z,99.90
2019-04-11T01:28:34.454Z,99.90
2019-04-11T01:31:08.008Z,99.90
2019-04-11T01:33:38.580Z,99.90
2019-04-11T01:36:09.455Z,99.90
2019-04-11T01:38:44.856Z,99.90
2019-04-11T01:41:15.426Z,99.90
2019-04-11T01:43:55.332Z,99.90
2019-04-11T01:46:18.612Z,99.90
2019-04-11T01:48:57.649Z,99.90
2019-04-11T01:51:29.562Z,99.90
2019-04-11T01:54:01.528Z,99.90
2019-04-11T01:56:33.516Z,99.90
2019-04-11T01:59:04.940Z,99.90
2019-04-11T02:01:57.682Z,99.90
2019-04-11T02:04:37.145Z,99.90
2019-04-11T02:07:10.057Z,99.90
2019-04-11T02:09:41.113Z,99.90
2019-04-11T02:12:12.086Z,99.90
2019-04-11T02:14:43.825Z,99.90
2019-04-11T02:17:18.790Z,99.90
2019-04-11T02:19:50.933Z,99.90
2019-04-11T02:22:34.749Z,99.90
2019-04-11T02:25:14.512Z,99.90
2019-04-11T02:27:46.259Z,99.90
2019-04-11T02:30:18.774Z,99.90
2019-04-11T02:32:51.896Z,99.90
2019-04-11T02:35:24.238Z,99.90
2019-04-11T02:37:56.883Z,99.90
2019-04-11T02:40:29.787Z,99.90
2019-04-11T02:43:00.306Z,99.90
2019-04-11T02:45:43.815Z,99.90
2019-04-11T02:48:05.690Z,99.90
2019-04-11T02:50:37.220Z,99.90
2019-04-11T02:53:09.563Z,99.90
2019-04-11T02:55:41.786Z,99.90
2019-04-11T02:58:14.517Z,99.90
2019-04-11T03:00:45.835Z,99.90
2019-04-11T03:03:17.476Z,99.90
2019-04-11T03:05:48.650Z,99.90
2019-04-11T03:08:21.733Z,99.90
2019-04-11T03:10:53.374Z,99.90
2019-04-11T03:13:25.343Z,99.90
2019-04-11T03:16:08.145Z,99.90
2019-04-11T03:18:45.836Z,99.90
2019-04-11T03:21:06.075Z,99.90
2019-04-11T03:23:35.484Z,99.90
2019-04-11T03:26:07.520Z,99.90
2019-04-11T03:28:42.490Z,99.90
2019-04-11T03:31:50.544Z,99.90
2019-04-11T03:39:11.960Z,99.90
2019-04-11T03:41:42.524Z,99.90
2019-04-11T03:44:04.295Z,99.90
2019-04-11T03:46:45.901Z,99.90
2019-04-11T03:49:16.932Z,99.90
2019-04-11T03:51:34.162Z,99.90
2019-04-11T03:54:07.677Z,99.90
2019-04-11T03:56:41.353Z,99.90
2019-04-11T03:59:16.115Z,99.90
2019-04-11T04:01:46.641Z,99.90
2019-04-11T04:04:21.368Z,99.90
2019-04-11T04:06:52.683Z,99.90
2019-04-11T04:09:26.176Z,99.90
2019-04-11T04:11:58.984Z,99.90
2019-04-11T04:14:49.500Z,99.90
2019-04-11T04:17:30.821Z,99.90
2019-04-11T04:20:17.126Z,99.90
2019-04-11T04:22:56.696Z,99.90
2019-04-11T04:25:28.571Z,99.90
2019-04-11T04:27:59.875Z,99.90
2019-04-11T04:30:31.144Z,99.90
2019-04-11T04:33:02.920Z,99.90
2019-04-11T04:35:36.044Z,99.90
2019-04-11T04:38:07.418Z,99.90
2019-04-11T04:40:51.081Z,99.90
2019-04-11T04:43:11.920Z,99.90
2019-04-11T04:46:06.616Z,99.90
2019-04-11T04:48:18.313Z,99.90
2019-04-11T04:50:48.996Z,99.90
2019-04-11T04:53:22.064Z,99.90
2019-04-11T04:55:54.300Z,99.90
2019-04-11T04:58:26.493Z,99.90
2019-04-11T05:00:58.502Z,99.90
2019-04-11T05:03:32.022Z,99.90
2019-04-11T05:06:04.129Z,99.90
2019-04-11T05:08:35.308Z,99.90
2019-04-11T05:11:07.609Z,99.90
2019-04-11T05:13:38.827Z,99.90
2019-04-11T05:16:17.320Z,99.90
2019-04-11T05:18:43.971Z,99.90
2019-04-11T05:21:14.966Z,99.90
2019-04-11T05:23:45.963Z,99.90
2019-04-11T05:26:17.326Z,99.90
2019-04-11T05:28:48.848Z,99.90
2019-04-11T05:31:20.614Z,99.90
2019-04-11T05:33:51.817Z,99.90
2019-04-11T05:36:22.724Z,99.90
2019-04-11T05:38:53.361Z,99.90
2019-04-11T05:41:24.704Z,99.90
2019-04-11T05:44:00.933Z,99.90
2019-04-11T05:46:35.392Z,99.90
2019-04-11T05:49:07.169Z,99.90
2019-04-11T05:51:42.571Z,99.90
2019-04-11T05:54:10.708Z,99.90
2019-04-11T05:56:41.774Z,99.90
2019-04-11T05:59:17.276Z,99.90
2019-04-11T06:01:53.103Z,99.90
2019-04-11T06:04:32.400Z,99.90
2019-04-11T06:07:19.175Z,99.90
2019-04-11T06:09:54.654Z,99.90
2019-04-11T06:12:35.906Z,99.90
2019-04-11T06:15:21.489Z,99.90
2019-04-11T06:17:52.512Z,99.90
2019-04-11T06:20:48.286Z,99.90
2019-04-11T06:23:39.183Z,99.90
2019-04-11T06:26:34.507Z,99.90
2019-04-11T06:29:21.769Z,99.90
2019-04-11T06:32:07.673Z,99.90
2019-04-11T06:34:43.819Z,99.90
2019-04-11T06:37:32.181Z,99.90
2019-04-11T06:40:11.705Z,99.90
2019-04-11T06:42:53.850Z,99.90
2019-04-11T06:45:58.882Z,99.90
2019-04-11T06:48:49.457Z,99.90
2019-04-11T06:51:28.358Z,99.90
2019-04-11T06:54:25.223Z,99.90
2019-04-11T06:56:57.083Z,99.90
2019-04-11T06:59:32.554Z,99.90
2019-04-11T07:02:16.477Z,99.90
2019-04-11T07:04:46.077Z,99.90
2019-04-11T07:07:18.432Z,99.90
2019-04-11T07:09:57.659Z,99.90
2019-04-11T07:12:40.870Z,99.90
2019-04-11T07:15:25.096Z,99.90
2019-04-11T07:18:14.109Z,99.90
2019-04-11T07:20:50.246Z,99.90
2019-04-11T07:23:38.572Z,99.90
2019-04-11T07:26:35.144Z,99.90
2019-04-11T07:29:25.797Z,99.90
2019-04-11T07:32:18.354Z,99.90
2019-04-11T07:35:33.652Z,99.90
2019-04-11T07:38:05.016Z,99.90
2019-04-11T07:41:00.790Z,99.90
2019-04-11T07:43:37.488Z,99.90
2019-04-11T07:46:22.223Z,99.90
2019-04-11T07:49:03.785Z,99.90
2019-04-11T07:51:36.591Z,99.90
2019-04-11T07:54:18.367Z,99.90
2019-04-11T07:56:55.150Z,99.90
2019-04-11T07:59:51.198Z,99.90
2019-04-11T08:02:39.984Z,99.60
2019-04-11T08:05:30.248Z,99.90
2019-04-11T08:08:25.832Z,99.90
2019-04-11T08:11:13.903Z,99.30
2019-04-11T08:14:18.485Z,99.20
2019-04-11T08:17:07.292Z,99.80
2019-04-11T08:19:57.348Z,99.70
2019-04-11T08:22:36.142Z,98.70
2019-04-11T08:25:23.675Z,99.00
2019-04-11T08:28:00.758Z,98.60
2019-04-11T08:30:33.307Z,98.30
2019-04-11T08:33:04.593Z,99.40
2019-04-11T08:35:55.310Z,98.50
2019-04-11T08:38:32.192Z,98.10
2019-04-11T08:41:09.718Z,98.00
2019-04-11T08:43:41.477Z,98.30
2019-04-11T08:46:22.624Z,98.70
2019-04-11T08:48:57.374Z,97.90
2019-04-11T08:51:29.393Z,98.70
2019-04-11T08:54:37.799Z,99.30
2019-04-11T08:57:10.113Z,97.20
2019-04-11T09:00:06.070Z,97.30
2019-04-11T09:02:47.137Z,98.40
2019-04-11T09:05:33.346Z,96.50
2019-04-11T09:08:27.934Z,97.90
2019-04-11T09:11:14.918Z,97.00
2019-04-11T09:14:13.771Z,96.30
2019-04-11T09:17:12.732Z,97.10
2019-04-11T09:20:09.413Z,95.50
2019-04-11T09:22:43.118Z,95.90
2019-04-11T09:25:33.383Z,95.40
2019-04-11T09:28:29.204Z,96.60
2019-04-11T09:31:25.466Z,96.40
2019-04-11T09:34:14.509Z,94.80
2019-04-11T09:36:49.794Z,92.30
2019-04-11T09:39:33.560Z,94.10
2019-04-11T09:42:28.838Z,93.90
2019-04-11T09:45:17.616Z,93.00
2019-04-11T09:48:14.340Z,92.60
2019-04-11T09:50:57.051Z,92.60
2019-04-11T09:53:28.268Z,91.40
2019-04-11T09:56:29.825Z,92.20
2019-04-11T09:59:05.323Z,91.30
2019-04-11T10:02:11.312Z,92.30
2019-04-11T10:04:43.577Z,91.40
2019-04-11T10:07:48.298Z,91.50
2019-04-11T10:10:44.870Z,91.60
2019-04-11T10:13:26.846Z,90.80
2019-04-11T10:16:15.882Z,89.70
2019-04-11T10:19:08.368Z,90.20
2019-04-11T10:21:41.719Z,85.70
2019-04-11T10:24:24.364Z,86.00
2019-04-11T10:27:04.761Z,88.00
2019-04-11T10:29:53.123Z,82.90
2019-04-11T10:32:27.513Z,84.00
2019-04-11T10:35:24.008Z,86.20
2019-04-11T10:37:55.980Z,86.00
2019-04-11T10:40:44.060Z,84.90
2019-04-11T10:43:16.106Z,82.70
2019-04-11T10:46:05.592Z,83.20
2019-04-11T10:49:11.584Z,84.50
2019-04-11T10:51:46.093Z,84.80
2019-04-11T10:54:16.756Z,81.10
2019-04-11T10:57:15.946Z,81.80
2019-04-11T10:59:47.107Z,81.70
2019-04-11T11:02:39.803Z,80.00
2019-04-11T11:05:12.774Z,80.80
2019-04-11T11:07:45.382Z,79.00
2019-04-11T11:10:23.676Z,77.70
2019-04-11T11:13:32.193Z,77.30
2019-04-11T11:16:04.350Z,80.50
2019-04-11T11:19:25.986Z,75.70
2019-04-11T11:21:33.959Z,77.40
2019-04-11T11:24:39.088Z,77.10
2019-04-11T11:27:07.416Z,75.90
2019-04-11T11:29:54.027Z,76.70
2019-04-11T11:32:31.572Z,75.30
2019-04-11T11:35:27.684Z,76.00
2019-04-11T11:38:01.977Z,72.60
2019-04-11T11:40:50.285Z,73.90
2019-04-11T11:43:28.884Z,78.40
2019-04-11T11:46:34.283Z,71.90
2019-04-11T11:49:41.841Z,73.70
2019-04-11T11:52:19.281Z,73.90
2019-04-11T11:54:52.200Z,71.70
2019-04-11T11:57:26.856Z,73.10
2019-04-11T12:00:07.106Z,70.60
2019-04-11T12:02:51.997Z,70.30
2019-04-11T12:05:34.731Z,69.90
2019-04-11T12:08:15.350Z,69.10
2019-04-11T12:10:47.508Z,69.20
2019-04-11T12:13:47.363Z,67.50
2019-04-11T12:16:54.482Z,69.50
2019-04-11T12:19:26.865Z,69.60
2019-04-11T12:21:58.557Z,69.20
2019-04-11T12:24:44.971Z,69.60
2019-04-11T12:27:33.567Z,68.40
2019-04-11T12:30:13.908Z,67.50
2019-04-11T12:32:52.970Z,68.10
2019-04-11T12:35:42.550Z,68.80
2019-04-11T12:38:20.411Z,70.50
2019-04-11T12:41:26.505Z,67.10
2019-04-11T12:44:18.433Z,66.80
2019-04-11T12:47:07.888Z,66.60
2019-04-11T12:49:56.534Z,61.70
2019-04-11T12:52:36.126Z,66.00
2019-04-11T12:55:08.508Z,64.50
2019-04-11T12:57:56.636Z,67.70
2019-04-11T13:00:48.926Z,65.40
2019-04-11T13:03:38.458Z,66.50
2019-04-11T13:06:17.172Z,62.40
2019-04-11T13:09:05.905Z,64.00
2019-04-11T13:11:37.201Z,65.40
2019-04-11T13:14:33.289Z,64.60
2019-04-11T13:17:05.380Z,66.80
2019-04-11T13:20:04.213Z,66.00
2019-04-11T13:22:27.419Z,67.10
2019-04-11T13:25:19.572Z,66.80
2019-04-11T13:27:53.402Z,66.40
2019-04-11T13:30:45.993Z,66.70
2019-04-11T13:33:34.673Z,65.10
2019-04-11T13:36:30.442Z,63.20
2019-04-11T13:39:03.476Z,66.30
2019-04-11T13:41:55.502Z,65.80
2019-04-11T13:44:29.415Z,65.90
2019-04-11T13:47:18.985Z,66.80
2019-04-11T13:49:51.732Z,64.90
2019-04-11T13:52:41.204Z,65.00
2019-04-11T13:55:18.873Z,68.90
2019-04-11T13:58:08.348Z,66.60
2019-04-11T14:00:43.804Z,65.20
2019-04-11T14:03:33.333Z,64.80
2019-04-11T14:06:10.482Z,63.60
2019-04-11T14:08:53.502Z,62.90
2019-04-11T14:11:24.785Z,63.60
2019-04-11T14:13:55.414Z,64.70
2019-04-11T14:16:25.989Z,65.10
2019-04-11T14:19:18.484Z,66.20
2019-04-11T14:21:50.118Z,64.50
2019-04-11T14:24:29.764Z,63.20
2019-04-11T14:27:00.851Z,62.20
2019-04-11T14:29:40.876Z,63.10
2019-04-11T14:32:23.426Z,61.50
2019-04-11T14:35:10.709Z,62.20
2019-04-11T14:37:44.531Z,64.70
2019-04-11T14:40:25.887Z,64.10
2019-04-11T14:43:33.515Z,65.50
2019-04-11T14:46:23.386Z,65.00
2019-04-11T14:49:00.311Z,65.00
2019-04-11T14:51:59.242Z,64.90
2019-04-11T14:54:48.882Z,64.90
2019-04-11T14:57:30.653Z,66.50
2019-04-11T15:00:08.224Z,63.80
2019-04-11T15:02:57.647Z,65.10
2019-04-11T15:05:37.201Z,63.20
2019-04-11T15:08:09.837Z,63.80
2019-04-11T15:11:09.671Z,63.60
2019-04-11T15:13:41.305Z,62.60
2019-04-11T15:16:40.927Z,63.20
2019-04-11T15:19:11.925Z,65.00
2019-04-11T15:22:13.613Z,62.90
2019-04-11T15:24:45.957Z,62.50
2019-04-11T15:27:41.425Z,63.50
2019-04-11T15:30:16.714Z,63.10
2019-04-11T15:33:18.412Z,64.30
2019-04-11T15:35:49.360Z,66.20
2019-04-11T15:38:38.074Z,64.00
2019-04-11T15:41:08.974Z,63.80
2019-04-11T15:43:58.484Z,61.90
2019-04-11T15:46:33.949Z,64.40
2019-04-11T15:49:29.820Z,64.40
2019-04-11T15:52:09.905Z,65.00
2019-04-11T15:54:58.413Z,64.90
2019-04-11T15:57:47.828Z,62.90
2019-04-11T16:00:49.688Z,61.70
2019-04-11T16:03:24.612Z,63.00
2019-04-11T16:06:30.554Z,64.30
2019-04-11T16:09:09.708Z,64.80
2019-04-11T16:11:58.788Z,64.90
2019-04-11T16:14:31.261Z,65.20
2019-04-11T16:17:35.863Z,65.70
2019-04-11T16:20:18.157Z,64.10
2019-04-11T16:23:10.361Z,64.80
2019-04-11T16:25:50.608Z,65.70
2019-04-11T16:28:46.313Z,65.50
2019-04-11T16:31:17.278Z,67.90
2019-04-11T16:34:09.555Z,67.40
2019-04-11T16:36:50.368Z,66.50
2019-04-11T16:39:50.305Z,68.60
2019-04-11T16:42:27.299Z,68.90
2019-04-11T16:45:25.041Z,67.30
2019-04-11T16:48:03.790Z,70.10
2019-04-11T16:50:34.471Z,66.90
2019-04-11T16:53:05.510Z,66.80
2019-04-11T16:55:36.931Z,67.40
2019-04-11T16:58:08.069Z,68.90
2019-04-11T17:00:38.833Z,67.00
2019-04-11T17:03:09.684Z,66.90
2019-04-11T17:05:42.231Z,67.70
2019-04-11T17:08:25.844Z,65.60
2019-04-11T17:11:21.283Z,66.00
2019-04-11T17:13:57.032Z,65.80
2019-04-11T17:16:25.437Z,66.30
2019-04-11T17:18:56.693Z,66.90
2019-04-11T17:21:27.545Z,66.20
2019-04-11T17:23:58.802Z,66.80
2019-04-11T17:26:29.628Z,66.90
2019-04-11T17:29:00.563Z,68.30
2019-04-11T17:31:31.447Z,66.60
2019-04-11T17:34:05.446Z,67.60
2019-04-11T17:36:35.488Z,66.90
2019-04-11T17:39:07.998Z,71.70
2019-04-11T17:41:41.810Z,70.90
2019-04-11T17:44:11.063Z,69.20
2019-04-11T17:46:41.768Z,68.10
2019-04-11T17:49:12.551Z,68.60
2019-04-11T17:51:55.006Z,70.90
2019-04-11T17:54:15.923Z,71.60
2019-04-11T17:56:46.688Z,68.40
2019-04-11T17:59:17.614Z,69.80
2019-04-11T18:01:48.613Z,71.60
2019-04-11T18:04:19.546Z,70.80
2019-04-11T18:06:50.188Z,69.90
2019-04-11T18:09:25.533Z,71.10
2019-04-11T18:11:55.877Z,69.60
2019-04-11T18:14:25.634Z,70.50
2019-04-11T18:16:59.301Z,70.40
2019-04-11T18:19:28.906Z,70.70
2019-04-11T18:22:07.766Z,71.30
2019-04-11T18:24:31.948Z,70.70
2019-04-11T18:27:02.859Z,71.20
2019-04-11T18:29:33.710Z,73.60
2019-04-11T18:32:04.725Z,72.90
2019-04-11T18:34:36.577Z,72.00
2019-04-11T18:37:07.508Z,73.90
2019-04-11T18:39:38.125Z,72.40
2019-04-11T18:42:08.999Z,74.50
2019-04-11T18:44:39.779Z,78.00
2019-04-11T18:47:11.142Z,76.50
2019-04-11T18:49:41.776Z,75.90
2019-04-11T18:52:19.643Z,74.20
2019-04-11T18:54:45.158Z,74.20
2019-04-11T18:57:18.582Z,73.70
2019-04-11T18:59:49.210Z,76.00
2019-04-11T19:02:19.887Z,74.00
2019-04-11T19:04:50.743Z,75.50
2019-04-11T19:07:27.716Z,77.10
2019-04-11T19:09:54.289Z,76.10
2019-04-11T19:12:24.915Z,80.10
2019-04-11T19:14:55.855Z,74.80
2019-04-11T19:17:26.849Z,77.30
2019-04-11T19:19:57.703Z,77.10
2019-04-11T19:22:37.710Z,82.00
2019-04-11T19:25:01.683Z,88.70
2019-04-11T19:27:32.403Z,91.60
2019-04-11T19:30:03.198Z,89.40
2019-04-11T19:32:33.827Z,92.10
2019-04-11T19:35:06.891Z,96.60
2019-04-11T19:37:41.727Z,97.50
2019-04-11T19:40:10.315Z,97.70
2019-04-11T19:42:40.933Z,99.90
2019-04-11T19:45:11.851Z,99.90
2019-04-11T19:47:42.575Z,94.00
2019-04-11T19:50:16.214Z,92.90
2019-04-11T19:52:46.980Z,95.40
2019-04-11T19:55:39.758Z,93.60
2019-04-11T19:58:11.093Z,92.10
2019-04-11T20:00:42.422Z,91.60
2019-04-11T20:03:13.237Z,92.40
2019-04-11T20:05:43.926Z,93.30
2019-04-11T20:08:15.904Z,92.60
2019-04-11T20:10:46.765Z,91.70
2019-04-11T20:13:17.796Z,91.20
2019-04-11T20:15:50.586Z,92.20
2019-04-11T20:18:22.695Z,92.30
2019-04-11T20:20:53.515Z,92.10
2019-04-11T20:23:24.107Z,91.90
2019-04-11T20:25:54.948Z,91.80
2019-04-11T20:28:26.870Z,92.00
2019-04-11T20:30:57.944Z,91.80
2019-04-11T20:33:33.848Z,92.40
2019-04-11T20:36:01.501Z,92.30
2019-04-11T20:38:32.118Z,92.60
2019-04-11T20:41:03.728Z,92.90
2019-04-11T20:43:34.402Z,92.60
2019-04-11T20:46:05.268Z,92.60
2019-04-11T20:48:35.898Z,92.80
2019-04-11T20:51:07.159Z,93.20
2019-04-11T20:53:38.049Z,93.30
2019-04-11T20:56:09.962Z,94.10
2019-04-11T20:58:41.209Z,93.50
2019-04-11T21:01:11.883Z,94.60
2019-04-11T21:03:42.758Z,93.70
2019-04-11T21:06:13.415Z,94.40
2019-04-11T21:08:44.008Z,94.40
2019-04-11T21:11:14.897Z,94.80
2019-04-11T21:13:45.849Z,94.70
2019-04-11T21:16:16.469Z,96.10
2019-04-11T21:18:47.076Z,95.60
2019-04-11T21:21:17.849Z,95.50
2019-04-11T21:23:48.494Z,96.30
2019-04-11T21:26:19.111Z,95.90
2019-04-11T21:28:50.078Z,95.70
2019-04-11T21:31:20.901Z,95.60
2019-04-11T21:33:53.233Z,96.80
2019-04-11T21:36:23.978Z,97.00
2019-04-11T21:38:55.204Z,97.20
2019-04-11T21:41:25.936Z,96.90
2019-04-11T21:43:59.882Z,98.00
2019-04-11T21:46:31.652Z,98.10
2019-04-11T21:49:06.140Z,99.20
2019-04-11T21:51:35.515Z,98.80
2019-04-11T21:54:06.373Z,98.50
2019-04-11T21:56:37.071Z,98.40
2019-04-11T21:59:08.098Z,97.80
2019-04-11T22:01:41.305Z,99.10
2019-04-11T22:04:11.898Z,98.70
2019-04-11T22:06:42.748Z,98.80
2019-04-11T22:09:13.372Z,99.90
2019-04-11T22:11:44.076Z,99.90
2019-04-11T22:14:14.767Z,99.90
2019-04-11T22:16:45.380Z,99.80
2019-04-11T22:19:15.913Z,99.90
2019-04-11T22:21:46.791Z,99.90
2019-04-11T22:24:17.369Z,99.90
2019-04-11T22:26:50.596Z,99.90
2019-04-11T22:29:20.364Z,99.90
2019-04-11T22:31:50.997Z,99.90
2019-04-11T22:34:28.778Z,99.90
2019-04-11T22:37:00.494Z,99.90
2019-04-11T22:39:32.078Z,99.90
2019-04-11T22:42:03.248Z,99.90
2019-04-11T22:44:35.550Z,99.90
2019-04-11T22:47:08.106Z,99.90
2019-04-11T22:49:39.412Z,99.90
2019-04-11T22:52:11.579Z,99.90
2019-04-11T22:54:43.204Z,99.90
2019-04-11T22:57:13.998Z,99.90
2019-04-11T22:59:45.324Z,99.90
2019-04-11T23:02:32.602Z,99.90
2019-04-11T23:05:03.250Z,99.90
2019-04-11T23:07:34.086Z,99.90
2019-04-11T23:10:05.366Z,99.90
2019-04-11T23:12:35.966Z,99.90
2019-04-11T23:15:07.180Z,99.90
2019-04-11T23:17:38.064Z,99.90
2019-04-11T23:20:09.237Z,99.90
2019-04-11T23:22:42.845Z,99.90
2019-04-11T23:25:12.469Z,99.90
2019-04-11T23:27:43.084Z,99.90
2019-04-11T23:30:15.944Z,99.90
2019-04-11T23:32:50.967Z,99.90
2019-04-11T23:35:21.127Z,99.90
2019-04-11T23:37:53.564Z,99.90
2019-04-11T23:40:24.136Z,99.90
2019-04-11T23:42:54.657Z,99.90
2019-04-11T23:45:27.625Z,99.90
2019-04-11T23:47:58.497Z,99.90
2019-04-11T23:50:29.200Z,99.90
2019-04-11T23:53:00.118Z,99.90
2019-04-11T23:55:30.949Z,99.90
2019-04-11T23:58:02.275Z,99.90
